sensor_id;sensor_type;location;lat;lon;timestamp;P1;durP1;ratioP1;P2;durP2;ratioP2
8580;SDS011;4328;48.622;9.230;2022-12-29T00:01:43;3.90;;;3.50;;
8580;SDS011;4328;48.622;9.230;2022-12-29T00:04:09;4.23;;;3.87;;
8580;SDS011;4328;48.622;9.230;2022-12-29T00:06:38;4.00;;;3.50;;
8580;SDS011;4328;48.622;9.230;2022-12-29T00:09:05;3.47;;;3.13;;
8580;SDS011;4328;48.622;9.230;2022-12-29T00:11:31;4.40;;;3.60;;
8580;SDS011;4328;48.622;9.230;2022-12-29T00:13:58;4.13;;;3.80;;
8580;SDS011;4328;48.622;9.230;2022-12-29T00:16:43;3.90;;;3.37;;
8580;SDS011;4328;48.622;9.230;2022-12-29T00:19:09;4.13;;;3.30;;
8580;SDS011;4328;48.622;9.230;2022-12-29T00:21:57;3.60;;;2.90;;
8580;SDS011;4328;48.622;9.230;2022-12-29T00:24:41;3.50;;;3.20;;
8580;SDS011;4328;48.622;9.230;2022-12-29T00:27:26;3.87;;;3.53;;
8580;SDS011;4328;48.622;9.230;2022-12-29T00:30:10;3.40;;;3.10;;
8580;SDS011;4328;48.622;9.230;2022-12-29T00:32:55;4.13;;;3.73;;
8580;SDS011;4328;48.622;9.230;2022-12-29T00:35:39;3.73;;;3.43;;
8580;SDS011;4328;48.622;9.230;2022-12-29T00:38:08;5.87;;;4.97;;
8580;SDS011;4328;48.622;9.230;2022-12-29T00:40:54;4.30;;;3.90;;
8580;SDS011;4328;48.622;9.230;2022-12-29T00:43:37;4.23;;;3.83;;
8580;SDS011;4328;48.622;9.230;2022-12-29T00:46:22;5.53;;;3.70;;
8580;SDS011;4328;48.622;9.230;2022-12-29T00:48:48;3.90;;;3.53;;
8580;SDS011;4328;48.622;9.230;2022-12-29T00:51:32;4.10;;;3.70;;
8580;SDS011;4328;48.622;9.230;2022-12-29T00:54:00;4.63;;;3.43;;
8580;SDS011;4328;48.622;9.230;2022-12-29T00:56:26;3.93;;;3.17;;
8580;SDS011;4328;48.622;9.230;2022-12-29T00:58:52;3.67;;;3.37;;
8580;SDS011;4328;48.622;9.230;2022-12-29T01:01:19;4.07;;;3.53;;
8580;SDS011;4328;48.622;9.230;2022-12-29T01:03:45;4.20;;;3.57;;
8580;SDS011;4328;48.622;9.230;2022-12-29T01:06:11;3.70;;;3.23;;
8580;SDS011;4328;48.622;9.230;2022-12-29T01:08:38;5.53;;;3.70;;
8580;SDS011;4328;48.622;9.230;2022-12-29T01:11:07;6.33;;;3.43;;
8580;SDS011;4328;48.622;9.230;2022-12-29T01:13:32;3.30;;;3.00;;
8580;SDS011;4328;48.622;9.230;2022-12-29T01:15:59;4.33;;;3.93;;
8580;SDS011;4328;48.622;9.230;2022-12-29T01:18:26;4.83;;;3.87;;
8580;SDS011;4328;48.622;9.230;2022-12-29T01:20:57;5.27;;;3.47;;
8580;SDS011;4328;48.622;9.230;2022-12-29T01:23:24;3.87;;;3.33;;
8580;SDS011;4328;48.622;9.230;2022-12-29T01:25:50;3.23;;;2.93;;
8580;SDS011;4328;48.622;9.230;2022-12-29T01:28:18;3.87;;;3.47;;
8580;SDS011;4328;48.622;9.230;2022-12-29T01:30:44;3.93;;;3.30;;
8580;SDS011;4328;48.622;9.230;2022-12-29T01:33:11;6.13;;;3.53;;
8580;SDS011;4328;48.622;9.230;2022-12-29T01:35:37;3.10;;;2.90;;
8580;SDS011;4328;48.622;9.230;2022-12-29T01:38:03;3.03;;;2.80;;
8580;SDS011;4328;48.622;9.230;2022-12-29T01:40:30;4.13;;;2.80;;
8580;SDS011;4328;48.622;9.230;2022-12-29T01:42:56;3.20;;;2.90;;
8580;SDS011;4328;48.622;9.230;2022-12-29T01:45:24;4.47;;;2.77;;
8580;SDS011;4328;48.622;9.230;2022-12-29T01:47:52;3.67;;;2.90;;
8580;SDS011;4328;48.622;9.230;2022-12-29T01:50:20;3.63;;;2.70;;
8580;SDS011;4328;48.622;9.230;2022-12-29T01:52:50;2.57;;;2.37;;
8580;SDS011;4328;48.622;9.230;2022-12-29T01:55:17;2.60;;;2.40;;
8580;SDS011;4328;48.622;9.230;2022-12-29T01:57:44;3.63;;;2.60;;
8580;SDS011;4328;48.622;9.230;2022-12-29T02:00:12;2.57;;;2.37;;
8580;SDS011;4328;48.622;9.230;2022-12-29T02:02:40;2.63;;;2.43;;
8580;SDS011;4328;48.622;9.230;2022-12-29T02:05:09;3.33;;;2.37;;
8580;SDS011;4328;48.622;9.230;2022-12-29T02:07:37;4.60;;;2.13;;
8580;SDS011;4328;48.622;9.230;2022-12-29T02:10:05;4.23;;;2.67;;
8580;SDS011;4328;48.622;9.230;2022-12-29T02:12:31;3.27;;;2.30;;
8580;SDS011;4328;48.622;9.230;2022-12-29T02:14:58;4.53;;;2.40;;
8580;SDS011;4328;48.622;9.230;2022-12-29T02:17:28;3.10;;;2.50;;
8580;SDS011;4328;48.622;9.230;2022-12-29T02:22:47;3.80;;;2.40;;
8580;SDS011;4328;48.622;9.230;2022-12-29T02:25:35;3.10;;;2.23;;
8580;SDS011;4328;48.622;9.230;2022-12-29T02:28:09;3.20;;;2.87;;
8580;SDS011;4328;48.622;9.230;2022-12-29T02:30:51;2.53;;;2.30;;
8580;SDS011;4328;48.622;9.230;2022-12-29T02:33:23;2.60;;;2.40;;
8580;SDS011;4328;48.622;9.230;2022-12-29T02:35:53;4.27;;;2.03;;
8580;SDS011;4328;48.622;9.230;2022-12-29T02:38:26;4.20;;;2.40;;
8580;SDS011;4328;48.622;9.230;2022-12-29T02:40:56;3.67;;;2.30;;
8580;SDS011;4328;48.622;9.230;2022-12-29T02:43:24;2.30;;;2.10;;
8580;SDS011;4328;48.622;9.230;2022-12-29T02:45:55;2.07;;;1.70;;
8580;SDS011;4328;48.622;9.230;2022-12-29T02:48:24;3.67;;;2.17;;
8580;SDS011;4328;48.622;9.230;2022-12-29T02:50:53;2.17;;;1.97;;
8580;SDS011;4328;48.622;9.230;2022-12-29T02:53:22;2.07;;;1.90;;
8580;SDS011;4328;48.622;9.230;2022-12-29T02:56:03;2.27;;;1.70;;
8580;SDS011;4328;48.622;9.230;2022-12-29T02:58:29;4.23;;;1.80;;
8580;SDS011;4328;48.622;9.230;2022-12-29T03:01:02;3.37;;;1.77;;
8580;SDS011;4328;48.622;9.230;2022-12-29T03:03:34;4.10;;;2.00;;
8580;SDS011;4328;48.622;9.230;2022-12-29T03:06:08;1.60;;;1.50;;
8580;SDS011;4328;48.622;9.230;2022-12-29T03:08:39;1.50;;;1.40;;
8580;SDS011;4328;48.622;9.230;2022-12-29T03:11:07;1.60;;;1.50;;
8580;SDS011;4328;48.622;9.230;2022-12-29T03:13:56;2.43;;;1.67;;
8580;SDS011;4328;48.622;9.230;2022-12-29T03:16:44;1.40;;;1.30;;
8580;SDS011;4328;48.622;9.230;2022-12-29T03:19:13;2.90;;;1.40;;
8580;SDS011;4328;48.622;9.230;2022-12-29T03:21:41;1.73;;;1.40;;
8580;SDS011;4328;48.622;9.230;2022-12-29T03:24:27;1.60;;;1.50;;
8580;SDS011;4328;48.622;9.230;2022-12-29T03:26:55;4.90;;;1.20;;
8580;SDS011;4328;48.622;9.230;2022-12-29T03:29:22;1.47;;;1.30;;
8580;SDS011;4328;48.622;9.230;2022-12-29T03:31:51;1.77;;;1.00;;
8580;SDS011;4328;48.622;9.230;2022-12-29T03:34:20;1.60;;;1.30;;
8580;SDS011;4328;48.622;9.230;2022-12-29T03:36:48;2.83;;;1.40;;
8580;SDS011;4328;48.622;9.230;2022-12-29T03:39:15;3.13;;;1.53;;
8580;SDS011;4328;48.622;9.230;2022-12-29T03:41:43;1.97;;;1.30;;
8580;SDS011;4328;48.622;9.230;2022-12-29T03:44:10;1.37;;;1.10;;
8580;SDS011;4328;48.622;9.230;2022-12-29T03:46:37;1.67;;;1.13;;
8580;SDS011;4328;48.622;9.230;2022-12-29T03:49:05;1.87;;;1.20;;
8580;SDS011;4328;48.622;9.230;2022-12-29T03:51:31;1.87;;;1.13;;
8580;SDS011;4328;48.622;9.230;2022-12-29T03:53:57;1.03;;;1.03;;
8580;SDS011;4328;48.622;9.230;2022-12-29T03:56:24;2.13;;;1.20;;
8580;SDS011;4328;48.622;9.230;2022-12-29T03:58:50;1.50;;;1.20;;
8580;SDS011;4328;48.622;9.230;2022-12-29T04:01:17;1.43;;;1.00;;
8580;SDS011;4328;48.622;9.230;2022-12-29T04:03:43;1.17;;;1.10;;
8580;SDS011;4328;48.622;9.230;2022-12-29T04:06:11;3.30;;;1.00;;
8580;SDS011;4328;48.622;9.230;2022-12-29T04:08:37;1.27;;;0.93;;
8580;SDS011;4328;48.622;9.230;2022-12-29T04:11:04;2.30;;;1.00;;
8580;SDS011;4328;48.622;9.230;2022-12-29T04:13:30;1.20;;;1.00;;
8580;SDS011;4328;48.622;9.230;2022-12-29T04:15:57;1.30;;;1.00;;
8580;SDS011;4328;48.622;9.230;2022-12-29T04:18:23;1.30;;;1.20;;
8580;SDS011;4328;48.622;9.230;2022-12-29T04:20:49;2.17;;;1.20;;
8580;SDS011;4328;48.622;9.230;2022-12-29T04:23:31;2.77;;;1.20;;
8580;SDS011;4328;48.622;9.230;2022-12-29T04:25:58;1.37;;;1.00;;
8580;SDS011;4328;48.622;9.230;2022-12-29T04:28:24;2.50;;;1.20;;
8580;SDS011;4328;48.622;9.230;2022-12-29T04:30:50;1.77;;;1.20;;
8580;SDS011;4328;48.622;9.230;2022-12-29T04:33:17;2.10;;;1.20;;
8580;SDS011;4328;48.622;9.230;2022-12-29T04:35:43;3.87;;;1.17;;
8580;SDS011;4328;48.622;9.230;2022-12-29T04:38:09;1.50;;;1.30;;
8580;SDS011;4328;48.622;9.230;2022-12-29T04:40:38;3.17;;;1.10;;
8580;SDS011;4328;48.622;9.230;2022-12-29T04:43:05;1.43;;;1.33;;
8580;SDS011;4328;48.622;9.230;2022-12-29T04:45:31;4.17;;;1.40;;
8580;SDS011;4328;48.622;9.230;2022-12-29T04:47:58;2.20;;;1.50;;
8580;SDS011;4328;48.622;9.230;2022-12-29T04:50:24;1.53;;;1.27;;
8580;SDS011;4328;48.622;9.230;2022-12-29T04:52:51;2.50;;;1.30;;
8580;SDS011;4328;48.622;9.230;2022-12-29T04:55:17;1.50;;;1.20;;
8580;SDS011;4328;48.622;9.230;2022-12-29T04:57:45;1.63;;;1.47;;
8580;SDS011;4328;48.622;9.230;2022-12-29T05:00:11;1.33;;;1.23;;
8580;SDS011;4328;48.622;9.230;2022-12-29T05:02:38;2.30;;;0.90;;
8580;SDS011;4328;48.622;9.230;2022-12-29T05:05:05;1.90;;;1.30;;
8580;SDS011;4328;48.622;9.230;2022-12-29T05:07:31;1.73;;;1.20;;
8580;SDS011;4328;48.622;9.230;2022-12-29T05:09:58;3.10;;;1.20;;
8580;SDS011;4328;48.622;9.230;2022-12-29T05:12:24;2.43;;;1.30;;
8580;SDS011;4328;48.622;9.230;2022-12-29T05:14:52;2.20;;;1.20;;
8580;SDS011;4328;48.622;9.230;2022-12-29T05:17:18;3.10;;;2.30;;
8580;SDS011;4328;48.622;9.230;2022-12-29T05:19:45;3.73;;;3.33;;
8580;SDS011;4328;48.622;9.230;2022-12-29T05:22:11;2.20;;;2.10;;
8580;SDS011;4328;48.622;9.230;2022-12-29T05:24:37;4.73;;;3.17;;
8580;SDS011;4328;48.622;9.230;2022-12-29T05:27:04;1.43;;;1.33;;
8580;SDS011;4328;48.622;9.230;2022-12-29T05:29:30;1.40;;;1.30;;
8580;SDS011;4328;48.622;9.230;2022-12-29T05:31:58;2.97;;;1.30;;
8580;SDS011;4328;48.622;9.230;2022-12-29T05:34:25;1.67;;;1.57;;
8580;SDS011;4328;48.622;9.230;2022-12-29T05:36:51;3.17;;;1.40;;
8580;SDS011;4328;48.622;9.230;2022-12-29T05:39:17;1.20;;;1.17;;
8580;SDS011;4328;48.622;9.230;2022-12-29T05:41:44;2.47;;;1.20;;
8580;SDS011;4328;48.622;9.230;2022-12-29T05:44:10;1.47;;;1.37;;
8580;SDS011;4328;48.622;9.230;2022-12-29T05:46:37;1.93;;;1.30;;
8580;SDS011;4328;48.622;9.230;2022-12-29T05:49:05;1.57;;;0.93;;
8580;SDS011;4328;48.622;9.230;2022-12-29T05:51:40;4.73;;;1.43;;
8580;SDS011;4328;48.622;9.230;2022-12-29T05:54:06;1.40;;;1.30;;
8580;SDS011;4328;48.622;9.230;2022-12-29T05:56:33;2.03;;;1.13;;
8580;SDS011;4328;48.622;9.230;2022-12-29T05:58:59;1.30;;;1.20;;
8580;SDS011;4328;48.622;9.230;2022-12-29T06:01:26;1.27;;;1.17;;
8580;SDS011;4328;48.622;9.230;2022-12-29T06:03:52;1.63;;;1.17;;
8580;SDS011;4328;48.622;9.230;2022-12-29T06:06:20;1.20;;;1.10;;
8580;SDS011;4328;48.622;9.230;2022-12-29T06:08:47;1.17;;;1.07;;
8580;SDS011;4328;48.622;9.230;2022-12-29T06:11:13;1.77;;;1.33;;
8580;SDS011;4328;48.622;9.230;2022-12-29T06:13:39;1.30;;;1.23;;
8580;SDS011;4328;48.622;9.230;2022-12-29T06:16:07;2.83;;;1.20;;
8580;SDS011;4328;48.622;9.230;2022-12-29T06:18:34;2.07;;;1.20;;
8580;SDS011;4328;48.622;9.230;2022-12-29T06:21:00;1.60;;;1.20;;
8580;SDS011;4328;48.622;9.230;2022-12-29T06:23:28;2.07;;;1.13;;
8580;SDS011;4328;48.622;9.230;2022-12-29T06:25:55;1.40;;;1.30;;
8580;SDS011;4328;48.622;9.230;2022-12-29T06:28:21;1.87;;;1.20;;
8580;SDS011;4328;48.622;9.230;2022-12-29T06:30:49;2.07;;;1.30;;
8580;SDS011;4328;48.622;9.230;2022-12-29T06:33:15;1.40;;;1.20;;
8580;SDS011;4328;48.622;9.230;2022-12-29T06:35:42;3.40;;;1.40;;
8580;SDS011;4328;48.622;9.230;2022-12-29T06:38:08;1.10;;;1.10;;
8580;SDS011;4328;48.622;9.230;2022-12-29T06:40:36;2.00;;;1.00;;
8580;SDS011;4328;48.622;9.230;2022-12-29T06:43:03;1.30;;;1.20;;
8580;SDS011;4328;48.622;9.230;2022-12-29T06:45:29;1.50;;;1.23;;
8580;SDS011;4328;48.622;9.230;2022-12-29T06:47:55;1.53;;;1.23;;
8580;SDS011;4328;48.622;9.230;2022-12-29T06:50:22;2.23;;;1.10;;
8580;SDS011;4328;48.622;9.230;2022-12-29T06:52:48;2.17;;;1.37;;
8580;SDS011;4328;48.622;9.230;2022-12-29T06:55:16;1.30;;;1.20;;
8580;SDS011;4328;48.622;9.230;2022-12-29T06:57:44;2.23;;;1.40;;
8580;SDS011;4328;48.622;9.230;2022-12-29T07:00:11;2.40;;;1.27;;
8580;SDS011;4328;48.622;9.230;2022-12-29T07:02:37;1.37;;;1.27;;
8580;SDS011;4328;48.622;9.230;2022-12-29T07:05:04;2.33;;;1.50;;
8580;SDS011;4328;48.622;9.230;2022-12-29T07:07:32;1.73;;;1.13;;
8580;SDS011;4328;48.622;9.230;2022-12-29T07:09:58;2.27;;;1.23;;
8580;SDS011;4328;48.622;9.230;2022-12-29T07:12:25;2.17;;;1.50;;
8580;SDS011;4328;48.622;9.230;2022-12-29T07:14:52;1.73;;;1.40;;
8580;SDS011;4328;48.622;9.230;2022-12-29T07:17:19;1.60;;;1.37;;
8580;SDS011;4328;48.622;9.230;2022-12-29T07:19:45;2.00;;;1.20;;
8580;SDS011;4328;48.622;9.230;2022-12-29T07:22:12;1.23;;;1.13;;
8580;SDS011;4328;48.622;9.230;2022-12-29T07:24:38;1.37;;;1.00;;
8580;SDS011;4328;48.622;9.230;2022-12-29T07:27:05;3.10;;;1.30;;
8580;SDS011;4328;48.622;9.230;2022-12-29T07:29:31;1.50;;;1.40;;
8580;SDS011;4328;48.622;9.230;2022-12-29T07:31:59;3.30;;;1.57;;
8580;SDS011;4328;48.622;9.230;2022-12-29T07:34:26;1.70;;;1.60;;
8580;SDS011;4328;48.622;9.230;2022-12-29T07:36:52;1.33;;;1.20;;
8580;SDS011;4328;48.622;9.230;2022-12-29T07:39:18;1.33;;;1.23;;
8580;SDS011;4328;48.622;9.230;2022-12-29T07:41:45;1.10;;;1.10;;
8580;SDS011;4328;48.622;9.230;2022-12-29T07:44:11;1.27;;;1.20;;
8580;SDS011;4328;48.622;9.230;2022-12-29T07:46:38;1.40;;;1.30;;
8580;SDS011;4328;48.622;9.230;2022-12-29T07:49:05;1.43;;;1.27;;
8580;SDS011;4328;48.622;9.230;2022-12-29T07:51:32;2.50;;;1.13;;
8580;SDS011;4328;48.622;9.230;2022-12-29T07:53:58;1.27;;;1.17;;
8580;SDS011;4328;48.622;9.230;2022-12-29T07:56:25;1.33;;;1.10;;
8580;SDS011;4328;48.622;9.230;2022-12-29T07:58:52;1.90;;;1.07;;
8580;SDS011;4328;48.622;9.230;2022-12-29T08:01:18;1.30;;;1.17;;
8580;SDS011;4328;48.622;9.230;2022-12-29T08:03:45;1.13;;;1.03;;
8580;SDS011;4328;48.622;9.230;2022-12-29T08:06:13;1.07;;;1.03;;
8580;SDS011;4328;48.622;9.230;2022-12-29T08:08:39;1.77;;;1.30;;
8580;SDS011;4328;48.622;9.230;2022-12-29T08:11:06;3.03;;;1.37;;
8580;SDS011;4328;48.622;9.230;2022-12-29T08:13:32;2.37;;;1.10;;
8580;SDS011;4328;48.622;9.230;2022-12-29T08:15:59;1.30;;;1.20;;
8580;SDS011;4328;48.622;9.230;2022-12-29T08:18:25;1.30;;;1.20;;
8580;SDS011;4328;48.622;9.230;2022-12-29T08:20:51;1.70;;;1.20;;
8580;SDS011;4328;48.622;9.230;2022-12-29T08:23:19;2.00;;;1.00;;
8580;SDS011;4328;48.622;9.230;2022-12-29T08:25:45;2.23;;;1.20;;
8580;SDS011;4328;48.622;9.230;2022-12-29T08:28:12;1.80;;;1.27;;
8580;SDS011;4328;48.622;9.230;2022-12-29T08:30:38;1.20;;;1.10;;
8580;SDS011;4328;48.622;9.230;2022-12-29T08:33:05;1.23;;;1.13;;
8580;SDS011;4328;48.622;9.230;2022-12-29T08:35:31;1.77;;;1.00;;
8580;SDS011;4328;48.622;9.230;2022-12-29T08:37:57;1.40;;;1.27;;
8580;SDS011;4328;48.622;9.230;2022-12-29T08:40:25;1.97;;;1.10;;
8580;SDS011;4328;48.622;9.230;2022-12-29T08:42:52;1.83;;;1.20;;
8580;SDS011;4328;48.622;9.230;2022-12-29T08:45:18;1.13;;;1.10;;
8580;SDS011;4328;48.622;9.230;2022-12-29T08:47:44;1.77;;;1.20;;
8580;SDS011;4328;48.622;9.230;2022-12-29T08:50:11;1.93;;;1.10;;
8580;SDS011;4328;48.622;9.230;2022-12-29T08:52:37;7.00;;;1.27;;
8580;SDS011;4328;48.622;9.230;2022-12-29T08:55:04;1.73;;;1.20;;
8580;SDS011;4328;48.622;9.230;2022-12-29T08:57:32;1.27;;;1.20;;
8580;SDS011;4328;48.622;9.230;2022-12-29T08:59:59;1.23;;;1.23;;
8580;SDS011;4328;48.622;9.230;2022-12-29T09:02:25;2.03;;;1.50;;
8580;SDS011;4328;48.622;9.230;2022-12-29T09:04:51;4.30;;;1.40;;
8580;SDS011;4328;48.622;9.230;2022-12-29T09:07:18;1.37;;;1.27;;
8580;SDS011;4328;48.622;9.230;2022-12-29T09:09:44;2.57;;;1.47;;
8580;SDS011;4328;48.622;9.230;2022-12-29T09:12:11;1.80;;;1.00;;
8580;SDS011;4328;48.622;9.230;2022-12-29T09:14:38;1.40;;;1.30;;
8580;SDS011;4328;48.622;9.230;2022-12-29T09:17:05;2.23;;;1.10;;
8580;SDS011;4328;48.622;9.230;2022-12-29T09:19:49;1.40;;;1.30;;
8580;SDS011;4328;48.622;9.230;2022-12-29T09:22:16;1.23;;;1.00;;
8580;SDS011;4328;48.622;9.230;2022-12-29T09:24:42;1.27;;;1.10;;
8580;SDS011;4328;48.622;9.230;2022-12-29T09:27:09;2.23;;;1.30;;
8580;SDS011;4328;48.622;9.230;2022-12-29T09:29:35;1.27;;;1.03;;
8580;SDS011;4328;48.622;9.230;2022-12-29T09:32:03;1.33;;;1.10;;
8580;SDS011;4328;48.622;9.230;2022-12-29T09:34:30;2.40;;;1.17;;
8580;SDS011;4328;48.622;9.230;2022-12-29T09:36:56;1.20;;;1.00;;
8580;SDS011;4328;48.622;9.230;2022-12-29T09:39:22;1.80;;;1.27;;
8580;SDS011;4328;48.622;9.230;2022-12-29T09:41:49;1.17;;;1.10;;
8580;SDS011;4328;48.622;9.230;2022-12-29T09:44:20;1.37;;;1.20;;
8580;SDS011;4328;48.622;9.230;2022-12-29T09:46:49;1.60;;;1.37;;
8580;SDS011;4328;48.622;9.230;2022-12-29T09:49:21;2.10;;;1.63;;
8580;SDS011;4328;48.622;9.230;2022-12-29T09:51:51;4.03;;;1.53;;
8580;SDS011;4328;48.622;9.230;2022-12-29T09:54:34;1.30;;;1.20;;
8580;SDS011;4328;48.622;9.230;2022-12-29T09:57:03;1.83;;;1.20;;
8580;SDS011;4328;48.622;9.230;2022-12-29T09:59:32;4.20;;;1.70;;
8580;SDS011;4328;48.622;9.230;2022-12-29T10:02:04;1.40;;;1.30;;
8580;SDS011;4328;48.622;9.230;2022-12-29T10:04:33;1.47;;;1.30;;
8580;SDS011;4328;48.622;9.230;2022-12-29T10:07:00;1.73;;;1.30;;
8580;SDS011;4328;48.622;9.230;2022-12-29T10:09:30;1.73;;;1.43;;
8580;SDS011;4328;48.622;9.230;2022-12-29T10:12:02;1.83;;;1.00;;
8580;SDS011;4328;48.622;9.230;2022-12-29T10:14:39;2.60;;;1.40;;
8580;SDS011;4328;48.622;9.230;2022-12-29T10:17:13;1.40;;;1.30;;
8580;SDS011;4328;48.622;9.230;2022-12-29T10:19:49;1.20;;;1.10;;
8580;SDS011;4328;48.622;9.230;2022-12-29T10:22:23;2.77;;;1.47;;
8580;SDS011;4328;48.622;9.230;2022-12-29T10:24:56;1.47;;;1.23;;
8580;SDS011;4328;48.622;9.230;2022-12-29T10:27:22;1.27;;;1.17;;
8580;SDS011;4328;48.622;9.230;2022-12-29T10:29:51;1.40;;;1.30;;
8580;SDS011;4328;48.622;9.230;2022-12-29T10:32:22;1.50;;;1.20;;
8580;SDS011;4328;48.622;9.230;2022-12-29T10:34:51;1.00;;;1.00;;
8580;SDS011;4328;48.622;9.230;2022-12-29T10:37:25;2.10;;;1.27;;
8580;SDS011;4328;48.622;9.230;2022-12-29T10:39:53;1.17;;;1.07;;
8580;SDS011;4328;48.622;9.230;2022-12-29T10:42:21;4.63;;;1.50;;
8580;SDS011;4328;48.622;9.230;2022-12-29T10:44:51;1.53;;;1.13;;
8580;SDS011;4328;48.622;9.230;2022-12-29T10:47:18;1.73;;;1.30;;
8580;SDS011;4328;48.622;9.230;2022-12-29T10:49:47;2.27;;;1.40;;
8580;SDS011;4328;48.622;9.230;2022-12-29T10:52:15;1.77;;;1.20;;
8580;SDS011;4328;48.622;9.230;2022-12-29T10:54:44;1.33;;;1.20;;
8580;SDS011;4328;48.622;9.230;2022-12-29T10:57:13;1.20;;;1.20;;
8580;SDS011;4328;48.622;9.230;2022-12-29T10:59:41;2.43;;;1.20;;
8580;SDS011;4328;48.622;9.230;2022-12-29T11:02:15;1.37;;;1.17;;
8580;SDS011;4328;48.622;9.230;2022-12-29T11:04:47;3.17;;;1.57;;
8580;SDS011;4328;48.622;9.230;2022-12-29T11:07:17;1.33;;;1.23;;
8580;SDS011;4328;48.622;9.230;2022-12-29T11:09:44;1.77;;;1.00;;
8580;SDS011;4328;48.622;9.230;2022-12-29T11:12:18;1.53;;;1.10;;
8580;SDS011;4328;48.622;9.230;2022-12-29T11:14:44;1.83;;;1.20;;
8580;SDS011;4328;48.622;9.230;2022-12-29T11:17:14;1.23;;;1.10;;
8580;SDS011;4328;48.622;9.230;2022-12-29T11:19:41;1.80;;;1.17;;
8580;SDS011;4328;48.622;9.230;2022-12-29T11:22:14;1.20;;;1.07;;
8580;SDS011;4328;48.622;9.230;2022-12-29T11:24:48;1.47;;;1.10;;
8580;SDS011;4328;48.622;9.230;2022-12-29T11:27:15;1.60;;;1.10;;
8580;SDS011;4328;48.622;9.230;2022-12-29T11:29:43;2.27;;;1.10;;
8580;SDS011;4328;48.622;9.230;2022-12-29T11:32:11;2.87;;;1.17;;
8580;SDS011;4328;48.622;9.230;2022-12-29T11:34:37;2.07;;;1.27;;
8580;SDS011;4328;48.622;9.230;2022-12-29T11:37:04;1.20;;;1.10;;
8580;SDS011;4328;48.622;9.230;2022-12-29T11:39:32;1.20;;;1.10;;
8580;SDS011;4328;48.622;9.230;2022-12-29T11:42:01;1.30;;;1.20;;
8580;SDS011;4328;48.622;9.230;2022-12-29T11:44:29;2.30;;;1.30;;
8580;SDS011;4328;48.622;9.230;2022-12-29T11:46:58;1.10;;;1.10;;
8580;SDS011;4328;48.622;9.230;2022-12-29T11:49:25;1.37;;;1.20;;
8580;SDS011;4328;48.622;9.230;2022-12-29T11:51:52;2.17;;;1.43;;
8580;SDS011;4328;48.622;9.230;2022-12-29T11:54:22;1.43;;;1.20;;
8580;SDS011;4328;48.622;9.230;2022-12-29T11:56:49;2.47;;;1.23;;
8580;SDS011;4328;48.622;9.230;2022-12-29T12:02:15;1.77;;;1.30;;
8580;SDS011;4328;48.622;9.230;2022-12-29T12:04:45;1.30;;;1.20;;
8580;SDS011;4328;48.622;9.230;2022-12-29T12:07:15;1.77;;;1.30;;
8580;SDS011;4328;48.622;9.230;2022-12-29T12:09:43;1.47;;;1.37;;
8580;SDS011;4328;48.622;9.230;2022-12-29T12:12:15;1.17;;;1.03;;
8580;SDS011;4328;48.622;9.230;2022-12-29T12:14:49;1.17;;;1.07;;
8580;SDS011;4328;48.622;9.230;2022-12-29T12:17:21;1.23;;;1.10;;
8580;SDS011;4328;48.622;9.230;2022-12-29T12:19:51;2.30;;;1.60;;
8580;SDS011;4328;48.622;9.230;2022-12-29T12:22:21;2.60;;;1.33;;
8580;SDS011;4328;48.622;9.230;2022-12-29T12:24:51;6.40;;;1.40;;
8580;SDS011;4328;48.622;9.230;2022-12-29T12:27:20;2.30;;;1.30;;
8580;SDS011;4328;48.622;9.230;2022-12-29T12:29:50;1.60;;;1.43;;
8580;SDS011;4328;48.622;9.230;2022-12-29T12:32:20;1.53;;;1.20;;
8580;SDS011;4328;48.622;9.230;2022-12-29T12:34:49;1.87;;;1.27;;
8580;SDS011;4328;48.622;9.230;2022-12-29T12:37:22;1.70;;;1.20;;
8580;SDS011;4328;48.622;9.230;2022-12-29T12:39:56;3.23;;;1.77;;
8580;SDS011;4328;48.622;9.230;2022-12-29T12:42:30;1.30;;;1.20;;
8580;SDS011;4328;48.622;9.230;2022-12-29T12:47:48;1.23;;;1.10;;
8580;SDS011;4328;48.622;9.230;2022-12-29T12:50:19;1.13;;;1.10;;
8580;SDS011;4328;48.622;9.230;2022-12-29T12:52:56;2.20;;;1.40;;
8580;SDS011;4328;48.622;9.230;2022-12-29T12:58:12;3.00;;;1.33;;
8580;SDS011;4328;48.622;9.230;2022-12-29T13:00:42;1.07;;;1.03;;
8580;SDS011;4328;48.622;9.230;2022-12-29T13:03:17;1.80;;;1.23;;
8580;SDS011;4328;48.622;9.230;2022-12-29T13:05:50;2.83;;;1.47;;
8580;SDS011;4328;48.622;9.230;2022-12-29T13:08:30;1.40;;;1.30;;
8580;SDS011;4328;48.622;9.230;2022-12-29T13:11:01;1.30;;;1.20;;
8580;SDS011;4328;48.622;9.230;2022-12-29T13:16:13;1.60;;;1.40;;
8580;SDS011;4328;48.622;9.230;2022-12-29T13:18:44;2.77;;;1.43;;
8580;SDS011;4328;48.622;9.230;2022-12-29T13:21:15;2.13;;;1.50;;
8580;SDS011;4328;48.622;9.230;2022-12-29T13:23:44;1.63;;;1.50;;
8580;SDS011;4328;48.622;9.230;2022-12-29T13:26:13;2.23;;;1.33;;
8580;SDS011;4328;48.622;9.230;2022-12-29T13:28:44;2.17;;;1.30;;
8580;SDS011;4328;48.622;9.230;2022-12-29T13:31:15;1.50;;;1.40;;
8580;SDS011;4328;48.622;9.230;2022-12-29T13:33:43;2.73;;;1.90;;
8580;SDS011;4328;48.622;9.230;2022-12-29T13:36:19;2.90;;;1.60;;
8580;SDS011;4328;48.622;9.230;2022-12-29T13:38:48;1.70;;;1.60;;
8580;SDS011;4328;48.622;9.230;2022-12-29T13:41:18;2.80;;;1.90;;
8580;SDS011;4328;48.622;9.230;2022-12-29T13:43:45;1.47;;;1.37;;
8580;SDS011;4328;48.622;9.230;2022-12-29T13:46:16;2.83;;;2.13;;
8580;SDS011;4328;48.622;9.230;2022-12-29T13:48:45;1.93;;;1.30;;
8580;SDS011;4328;48.622;9.230;2022-12-29T13:51:13;1.47;;;1.37;;
8580;SDS011;4328;48.622;9.230;2022-12-29T13:53:42;2.93;;;2.50;;
8580;SDS011;4328;48.622;9.230;2022-12-29T13:56:18;3.07;;;1.40;;
8580;SDS011;4328;48.622;9.230;2022-12-29T13:58:47;1.40;;;1.30;;
8580;SDS011;4328;48.622;9.230;2022-12-29T14:01:17;1.83;;;1.20;;
8580;SDS011;4328;48.622;9.230;2022-12-29T14:03:46;3.40;;;1.40;;
8580;SDS011;4328;48.622;9.230;2022-12-29T14:06:17;1.40;;;1.30;;
8580;SDS011;4328;48.622;9.230;2022-12-29T14:08:45;1.43;;;1.10;;
8580;SDS011;4328;48.622;9.230;2022-12-29T14:11:13;1.47;;;1.27;;
8580;SDS011;4328;48.622;9.230;2022-12-29T14:13:40;3.60;;;1.30;;
8580;SDS011;4328;48.622;9.230;2022-12-29T14:16:08;1.20;;;1.10;;
8580;SDS011;4328;48.622;9.230;2022-12-29T14:18:41;1.40;;;1.30;;
8580;SDS011;4328;48.622;9.230;2022-12-29T14:21:08;1.90;;;1.30;;
8580;SDS011;4328;48.622;9.230;2022-12-29T14:23:38;1.43;;;1.33;;
8580;SDS011;4328;48.622;9.230;2022-12-29T14:26:10;1.63;;;1.20;;
8580;SDS011;4328;48.622;9.230;2022-12-29T14:28:37;1.17;;;1.10;;
8580;SDS011;4328;48.622;9.230;2022-12-29T14:31:04;2.20;;;1.30;;
8580;SDS011;4328;48.622;9.230;2022-12-29T14:33:31;2.17;;;1.40;;
8580;SDS011;4328;48.622;9.230;2022-12-29T14:38:44;1.60;;;1.50;;
8580;SDS011;4328;48.622;9.230;2022-12-29T14:43:59;2.60;;;1.13;;
8580;SDS011;4328;48.622;9.230;2022-12-29T14:46:41;1.20;;;1.10;;
8580;SDS011;4328;48.622;9.230;2022-12-29T14:49:08;1.63;;;1.40;;
8580;SDS011;4328;48.622;9.230;2022-12-29T14:51:41;2.27;;;1.40;;
8580;SDS011;4328;48.622;9.230;2022-12-29T14:56:53;1.83;;;1.33;;
8580;SDS011;4328;48.622;9.230;2022-12-29T14:59:23;2.23;;;1.60;;
8580;SDS011;4328;48.622;9.230;2022-12-29T15:01:51;1.50;;;1.20;;
8580;SDS011;4328;48.622;9.230;2022-12-29T15:04:19;1.90;;;1.37;;
8580;SDS011;4328;48.622;9.230;2022-12-29T15:06:47;2.40;;;1.37;;
8580;SDS011;4328;48.622;9.230;2022-12-29T15:09:17;1.97;;;1.50;;
8580;SDS011;4328;48.622;9.230;2022-12-29T15:11:48;1.83;;;1.43;;
8580;SDS011;4328;48.622;9.230;2022-12-29T15:14:30;2.00;;;1.37;;
8580;SDS011;4328;48.622;9.230;2022-12-29T15:16:58;1.57;;;1.47;;
8580;SDS011;4328;48.622;9.230;2022-12-29T15:19:25;2.40;;;1.50;;
8580;SDS011;4328;48.622;9.230;2022-12-29T15:21:52;1.57;;;1.40;;
8580;SDS011;4328;48.622;9.230;2022-12-29T15:24:18;2.67;;;1.50;;
8580;SDS011;4328;48.622;9.230;2022-12-29T15:26:45;1.93;;;1.50;;
8580;SDS011;4328;48.622;9.230;2022-12-29T15:31:55;1.50;;;1.40;;
8580;SDS011;4328;48.622;9.230;2022-12-29T15:34:21;1.63;;;1.30;;
8580;SDS011;4328;48.622;9.230;2022-12-29T15:36:49;2.23;;;1.50;;
8580;SDS011;4328;48.622;9.230;2022-12-29T15:39:19;1.63;;;1.53;;
8580;SDS011;4328;48.622;9.230;2022-12-29T15:41:46;2.13;;;1.80;;
8580;SDS011;4328;48.622;9.230;2022-12-29T15:44:26;2.10;;;1.60;;
8580;SDS011;4328;48.622;9.230;2022-12-29T15:46:56;2.87;;;1.70;;
8580;SDS011;4328;48.622;9.230;2022-12-29T15:49:22;2.10;;;1.90;;
8580;SDS011;4328;48.622;9.230;2022-12-29T15:51:50;3.23;;;2.90;;